sensor_id;sensor_type;location;lat;lon;timestamp;P1;durP1;ratioP1;P2;durP2;ratioP2
53269;SDS011;39159;45.634;9.420;2023-03-23T00:02:23;14.52;;;8.50;;
53269;SDS011;39159;45.634;9.420;2023-03-23T00:04:52;12.05;;;8.50;;
53269;SDS011;39159;45.634;9.420;2023-03-23T00:07:18;13.73;;;7.93;;
53269;SDS011;39159;45.634;9.420;2023-03-23T00:09:46;12.00;;;7.65;;
53269;SDS011;39159;45.634;9.420;2023-03-23T00:12:17;13.63;;;8.35;;
53269;SDS011;39159;45.634;9.420;2023-03-23T00:14:43;12.57;;;7.32;;
53269;SDS011;39159;45.634;9.420;2023-03-23T00:17:09;10.90;;;7.40;;
53269;SDS011;39159;45.634;9.420;2023-03-23T00:19:38;12.98;;;8.13;;
53269;SDS011;39159;45.634;9.420;2023-03-23T00:22:11;12.27;;;7.97;;
53269;SDS011;39159;45.634;9.420;2023-03-23T00:24:41;15.35;;;8.10;;
53269;SDS011;39159;45.634;9.420;2023-03-23T00:27:07;13.20;;;8.02;;
53269;SDS011;39159;45.634;9.420;2023-03-23T00:29:34;13.65;;;7.72;;
53269;SDS011;39159;45.634;9.420;2023-03-23T00:32:00;13.85;;;7.72;;
53269;SDS011;39159;45.634;9.420;2023-03-23T00:34:27;12.77;;;8.15;;
53269;SDS011;39159;45.634;9.420;2023-03-23T00:36:57;15.20;;;8.45;;
53269;SDS011;39159;45.634;9.420;2023-03-23T00:39:23;12.32;;;7.55;;
53269;SDS011;39159;45.634;9.420;2023-03-23T00:45:08;10.13;;;6.55;;
53269;SDS011;39159;45.634;9.420;2023-03-23T00:47:36;10.13;;;6.75;;
53269;SDS011;39159;45.634;9.420;2023-03-23T00:50:03;11.27;;;7.40;;
53269;SDS011;39159;45.634;9.420;2023-03-23T00:52:30;10.00;;;6.10;;
53269;SDS011;39159;45.634;9.420;2023-03-23T00:54:55;10.75;;;6.95;;
53269;SDS011;39159;45.634;9.420;2023-03-23T00:57:21;11.55;;;6.50;;
53269;SDS011;39159;45.634;9.420;2023-03-23T00:59:49;12.75;;;6.68;;
53269;SDS011;39159;45.634;9.420;2023-03-23T01:02:17;12.15;;;6.78;;
53269;SDS011;39159;45.634;9.420;2023-03-23T01:04:44;11.30;;;7.82;;
53269;SDS011;39159;45.634;9.420;2023-03-23T01:07:10;11.85;;;8.00;;
53269;SDS011;39159;45.634;9.420;2023-03-23T01:09:38;15.07;;;9.13;;
53269;SDS011;39159;45.634;9.420;2023-03-23T01:15:31;13.65;;;9.45;;
53269;SDS011;39159;45.634;9.420;2023-03-23T01:17:56;16.38;;;9.90;;
53269;SDS011;39159;45.634;9.420;2023-03-23T01:20:22;16.60;;;10.38;;
53269;SDS011;39159;45.634;9.420;2023-03-23T01:22:49;18.48;;;9.85;;
53269;SDS011;39159;45.634;9.420;2023-03-23T01:25:14;13.10;;;9.70;;
53269;SDS011;39159;45.634;9.420;2023-03-23T01:27:40;15.50;;;9.25;;
53269;SDS011;39159;45.634;9.420;2023-03-23T01:30:06;15.07;;;9.23;;
53269;SDS011;39159;45.634;9.420;2023-03-23T01:32:33;13.15;;;8.65;;
53269;SDS011;39159;45.634;9.420;2023-03-23T01:35:00;13.48;;;7.93;;
53269;SDS011;39159;45.634;9.420;2023-03-23T01:37:25;16.58;;;9.02;;
53269;SDS011;39159;45.634;9.420;2023-03-23T01:39:55;12.75;;;9.48;;
53269;SDS011;39159;45.634;9.420;2023-03-23T01:42:22;14.05;;;8.30;;
53269;SDS011;39159;45.634;9.420;2023-03-23T01:47:20;14.57;;;8.13;;
53269;SDS011;39159;45.634;9.420;2023-03-23T01:49:48;16.48;;;8.98;;
53269;SDS011;39159;45.634;9.420;2023-03-23T01:52:16;12.18;;;8.25;;
53269;SDS011;39159;45.634;9.420;2023-03-23T01:54:50;14.13;;;8.63;;
53269;SDS011;39159;45.634;9.420;2023-03-23T01:57:18;12.05;;;8.25;;
53269;SDS011;39159;45.634;9.420;2023-03-23T01:59:47;12.60;;;7.72;;
53269;SDS011;39159;45.634;9.420;2023-03-23T02:02:16;12.40;;;8.10;;
53269;SDS011;39159;45.634;9.420;2023-03-23T02:04:45;15.70;;;7.68;;
53269;SDS011;39159;45.634;9.420;2023-03-23T02:07:11;14.27;;;8.70;;
53269;SDS011;39159;45.634;9.420;2023-03-23T02:09:39;15.13;;;9.40;;
53269;SDS011;39159;45.634;9.420;2023-03-23T02:12:04;15.05;;;9.48;;
53269;SDS011;39159;45.634;9.420;2023-03-23T02:14:30;17.65;;;9.88;;
53269;SDS011;39159;45.634;9.420;2023-03-23T02:20:07;17.13;;;9.40;;
53269;SDS011;39159;45.634;9.420;2023-03-23T02:28:52;17.50;;;9.77;;
53269;SDS011;39159;45.634;9.420;2023-03-23T02:34:17;21.30;;;11.07;;
53269;SDS011;39159;45.634;9.420;2023-03-23T02:36:49;22.73;;;11.82;;
53269;SDS011;39159;45.634;9.420;2023-03-23T02:39:21;19.67;;;11.35;;
53269;SDS011;39159;45.634;9.420;2023-03-23T02:44:21;17.67;;;10.93;;
53269;SDS011;39159;45.634;9.420;2023-03-23T02:46:48;23.23;;;12.15;;
53269;SDS011;39159;45.634;9.420;2023-03-23T02:49:15;20.70;;;13.23;;
53269;SDS011;39159;45.634;9.420;2023-03-23T02:51:43;24.35;;;12.60;;
53269;SDS011;39159;45.634;9.420;2023-03-23T02:54:11;22.10;;;12.25;;
53269;SDS011;39159;45.634;9.420;2023-03-23T02:56:40;23.98;;;14.25;;
53269;SDS011;39159;45.634;9.420;2023-03-23T02:59:06;25.48;;;13.57;;
53269;SDS011;39159;45.634;9.420;2023-03-23T03:03:58;22.88;;;13.43;;
53269;SDS011;39159;45.634;9.420;2023-03-23T03:06:32;24.13;;;14.90;;
53269;SDS011;39159;45.634;9.420;2023-03-23T03:09:03;24.35;;;14.68;;
53269;SDS011;39159;45.634;9.420;2023-03-23T03:11:35;25.50;;;14.73;;
53269;SDS011;39159;45.634;9.420;2023-03-23T03:14:08;27.27;;;14.07;;
53269;SDS011;39159;45.634;9.420;2023-03-23T03:19:18;26.42;;;13.93;;
53269;SDS011;39159;45.634;9.420;2023-03-23T03:21:50;22.95;;;13.80;;
53269;SDS011;39159;45.634;9.420;2023-03-23T03:24:18;20.17;;;12.75;;
53269;SDS011;39159;45.634;9.420;2023-03-23T03:26:48;21.58;;;12.60;;
53269;SDS011;39159;45.634;9.420;2023-03-23T03:29:17;20.52;;;12.88;;
53269;SDS011;39159;45.634;9.420;2023-03-23T03:31:46;22.40;;;12.75;;
53269;SDS011;39159;45.634;9.420;2023-03-23T03:34:14;24.35;;;14.05;;
53269;SDS011;39159;45.634;9.420;2023-03-23T03:36:43;22.48;;;13.40;;
53269;SDS011;39159;45.634;9.420;2023-03-23T03:39:11;21.83;;;13.05;;
53269;SDS011;39159;45.634;9.420;2023-03-23T03:41:40;22.65;;;12.85;;
53269;SDS011;39159;45.634;9.420;2023-03-23T03:44:06;19.80;;;11.88;;
53269;SDS011;39159;45.634;9.420;2023-03-23T03:46:32;18.00;;;11.52;;
53269;SDS011;39159;45.634;9.420;2023-03-23T03:48:59;20.00;;;11.88;;
53269;SDS011;39159;45.634;9.420;2023-03-23T03:51:27;22.83;;;11.07;;
53269;SDS011;39159;45.634;9.420;2023-03-23T03:53:53;19.00;;;10.93;;
53269;SDS011;39159;45.634;9.420;2023-03-23T03:56:19;14.77;;;10.25;;
53269;SDS011;39159;45.634;9.420;2023-03-23T03:58:47;19.70;;;10.98;;
53269;SDS011;39159;45.634;9.420;2023-03-23T04:01:13;15.70;;;10.13;;
53269;SDS011;39159;45.634;9.420;2023-03-23T04:03:40;15.23;;;9.70;;
53269;SDS011;39159;45.634;9.420;2023-03-23T04:06:06;19.65;;;10.75;;
53269;SDS011;39159;45.634;9.420;2023-03-23T04:08:33;18.15;;;9.98;;
53269;SDS011;39159;45.634;9.420;2023-03-23T04:11:00;16.20;;;9.77;;
53269;SDS011;39159;45.634;9.420;2023-03-23T04:13:26;16.45;;;10.38;;
53269;SDS011;39159;45.634;9.420;2023-03-23T04:15:52;18.83;;;10.32;;
53269;SDS011;39159;45.634;9.420;2023-03-23T04:18:18;14.45;;;9.40;;
53269;SDS011;39159;45.634;9.420;2023-03-23T04:20:45;17.35;;;10.77;;
53269;SDS011;39159;45.634;9.420;2023-03-23T04:23:15;16.55;;;10.05;;
53269;SDS011;39159;45.634;9.420;2023-03-23T04:25:47;18.08;;;10.52;;
53269;SDS011;39159;45.634;9.420;2023-03-23T04:28:14;15.70;;;10.15;;
53269;SDS011;39159;45.634;9.420;2023-03-23T04:30:44;14.93;;;9.60;;
53269;SDS011;39159;45.634;9.420;2023-03-23T04:33:11;16.08;;;10.18;;
53269;SDS011;39159;45.634;9.420;2023-03-23T04:35:41;16.58;;;9.15;;
53269;SDS011;39159;45.634;9.420;2023-03-23T04:38:07;17.35;;;10.05;;
53269;SDS011;39159;45.634;9.420;2023-03-23T04:40:37;18.25;;;10.40;;
53269;SDS011;39159;45.634;9.420;2023-03-23T04:43:04;18.65;;;10.07;;
53269;SDS011;39159;45.634;9.420;2023-03-23T04:45:31;14.32;;;9.38;;
53269;SDS011;39159;45.634;9.420;2023-03-23T04:47:58;17.67;;;10.50;;
53269;SDS011;39159;45.634;9.420;2023-03-23T04:50:27;13.98;;;9.70;;
53269;SDS011;39159;45.634;9.420;2023-03-23T04:52:56;17.65;;;9.93;;
53269;SDS011;39159;45.634;9.420;2023-03-23T04:55:22;20.58;;;11.32;;
53269;SDS011;39159;45.634;9.420;2023-03-23T04:57:49;17.83;;;10.60;;
53269;SDS011;39159;45.634;9.420;2023-03-23T05:00:14;15.38;;;9.50;;
53269;SDS011;39159;45.634;9.420;2023-03-23T05:02:41;15.10;;;9.32;;
53269;SDS011;39159;45.634;9.420;2023-03-23T05:05:09;15.30;;;9.38;;
53269;SDS011;39159;45.634;9.420;2023-03-23T05:07:40;18.75;;;10.45;;
53269;SDS011;39159;45.634;9.420;2023-03-23T05:10:07;15.30;;;8.95;;
53269;SDS011;39159;45.634;9.420;2023-03-23T05:12:35;13.35;;;8.55;;
53269;SDS011;39159;45.634;9.420;2023-03-23T05:15:00;19.65;;;9.88;;
53269;SDS011;39159;45.634;9.420;2023-03-23T05:17:26;14.02;;;9.63;;
53269;SDS011;39159;45.634;9.420;2023-03-23T05:19:52;16.40;;;9.80;;
53269;SDS011;39159;45.634;9.420;2023-03-23T05:22:18;13.07;;;8.63;;
53269;SDS011;39159;45.634;9.420;2023-03-23T05:24:46;13.23;;;8.40;;
53269;SDS011;39159;45.634;9.420;2023-03-23T05:27:12;14.68;;;8.80;;
53269;SDS011;39159;45.634;9.420;2023-03-23T05:29:40;12.43;;;8.82;;
53269;SDS011;39159;45.634;9.420;2023-03-23T05:32:08;13.65;;;8.52;;
53269;SDS011;39159;45.634;9.420;2023-03-23T05:34:35;14.80;;;9.07;;
53269;SDS011;39159;45.634;9.420;2023-03-23T05:37:01;13.43;;;8.75;;
53269;SDS011;39159;45.634;9.420;2023-03-23T05:39:28;15.75;;;9.00;;
53269;SDS011;39159;45.634;9.420;2023-03-23T05:41:55;13.70;;;8.45;;
53269;SDS011;39159;45.634;9.420;2023-03-23T05:44:21;14.45;;;9.30;;
53269;SDS011;39159;45.634;9.420;2023-03-23T05:46:46;13.15;;;8.25;;
53269;SDS011;39159;45.634;9.420;2023-03-23T05:49:13;14.77;;;8.75;;
53269;SDS011;39159;45.634;9.420;2023-03-23T05:51:41;17.05;;;8.65;;
53269;SDS011;39159;45.634;9.420;2023-03-23T05:54:11;13.98;;;8.88;;
53269;SDS011;39159;45.634;9.420;2023-03-23T05:56:37;15.48;;;9.38;;
53269;SDS011;39159;45.634;9.420;2023-03-23T05:59:03;16.92;;;8.23;;
53269;SDS011;39159;45.634;9.420;2023-03-23T06:01:28;16.60;;;8.77;;
53269;SDS011;39159;45.634;9.420;2023-03-23T06:03:54;15.85;;;9.10;;
53269;SDS011;39159;45.634;9.420;2023-03-23T06:06:24;15.25;;;8.48;;
53269;SDS011;39159;45.634;9.420;2023-03-23T06:08:50;13.77;;;8.82;;
53269;SDS011;39159;45.634;9.420;2023-03-23T06:11:16;16.05;;;8.80;;
53269;SDS011;39159;45.634;9.420;2023-03-23T06:13:42;15.23;;;8.07;;
53269;SDS011;39159;45.634;9.420;2023-03-23T06:16:08;15.95;;;7.72;;
53269;SDS011;39159;45.634;9.420;2023-03-23T06:18:34;15.07;;;9.00;;
53269;SDS011;39159;45.634;9.420;2023-03-23T06:21:02;13.55;;;8.60;;
53269;SDS011;39159;45.634;9.420;2023-03-23T06:23:31;15.27;;;7.63;;
53269;SDS011;39159;45.634;9.420;2023-03-23T06:25:57;53.17;;;11.18;;
53269;SDS011;39159;45.634;9.420;2023-03-23T06:28:25;64.70;;;13.25;;
53269;SDS011;39159;45.634;9.420;2023-03-23T06:30:50;27.33;;;9.55;;
53269;SDS011;39159;45.634;9.420;2023-03-23T06:33:16;21.08;;;8.23;;
53269;SDS011;39159;45.634;9.420;2023-03-23T06:35:42;21.58;;;7.75;;
53269;SDS011;39159;45.634;9.420;2023-03-23T06:38:08;16.77;;;7.10;;
53269;SDS011;39159;45.634;9.420;2023-03-23T06:40:34;13.20;;;7.80;;
53269;SDS011;39159;45.634;9.420;2023-03-23T06:43:02;12.75;;;6.97;;
53269;SDS011;39159;45.634;9.420;2023-03-23T06:45:28;14.73;;;8.20;;
53269;SDS011;39159;45.634;9.420;2023-03-23T06:47:54;10.40;;;6.45;;
53269;SDS011;39159;45.634;9.420;2023-03-23T06:50:20;12.57;;;7.28;;
53269;SDS011;39159;45.634;9.420;2023-03-23T06:52:46;14.90;;;8.15;;
53269;SDS011;39159;45.634;9.420;2023-03-23T06:55:13;24.65;;;9.50;;
53269;SDS011;39159;45.634;9.420;2023-03-23T06:57:39;15.45;;;8.02;;
53269;SDS011;39159;45.634;9.420;2023-03-23T07:00:06;9.23;;;7.03;;
53269;SDS011;39159;45.634;9.420;2023-03-23T07:02:39;10.60;;;7.57;;
53269;SDS011;39159;45.634;9.420;2023-03-23T07:05:06;15.77;;;8.07;;
53269;SDS011;39159;45.634;9.420;2023-03-23T07:07:32;11.27;;;6.97;;
53269;SDS011;39159;45.634;9.420;2023-03-23T07:09:58;9.43;;;7.18;;
53269;SDS011;39159;45.634;9.420;2023-03-23T07:12:23;10.70;;;8.00;;
53269;SDS011;39159;45.634;9.420;2023-03-23T07:14:49;16.92;;;7.35;;
53269;SDS011;39159;45.634;9.420;2023-03-23T07:17:15;11.02;;;7.05;;
53269;SDS011;39159;45.634;9.420;2023-03-23T07:19:40;16.98;;;7.03;;
53269;SDS011;39159;45.634;9.420;2023-03-23T07:22:06;13.70;;;7.57;;
53269;SDS011;39159;45.634;9.420;2023-03-23T07:24:33;10.52;;;6.63;;
53269;SDS011;39159;45.634;9.420;2023-03-23T07:26:59;13.27;;;7.10;;
53269;SDS011;39159;45.634;9.420;2023-03-23T07:29:25;10.45;;;6.68;;
53269;SDS011;39159;45.634;9.420;2023-03-23T07:31:52;9.55;;;7.05;;
53269;SDS011;39159;45.634;9.420;2023-03-23T07:34:18;11.65;;;7.28;;
53269;SDS011;39159;45.634;9.420;2023-03-23T07:36:44;12.93;;;6.53;;
53269;SDS011;39159;45.634;9.420;2023-03-23T07:39:11;15.30;;;7.20;;
53269;SDS011;39159;45.634;9.420;2023-03-23T07:41:38;12.13;;;7.70;;
53269;SDS011;39159;45.634;9.420;2023-03-23T07:44:04;10.88;;;7.00;;
53269;SDS011;39159;45.634;9.420;2023-03-23T07:46:30;11.60;;;6.97;;
53269;SDS011;39159;45.634;9.420;2023-03-23T07:48:56;10.98;;;7.28;;
53269;SDS011;39159;45.634;9.420;2023-03-23T07:51:22;11.32;;;7.80;;
53269;SDS011;39159;45.634;9.420;2023-03-23T07:53:49;14.38;;;8.00;;
53269;SDS011;39159;45.634;9.420;2023-03-23T07:56:15;16.00;;;8.52;;
53269;SDS011;39159;45.634;9.420;2023-03-23T07:58:44;14.35;;;8.50;;
53269;SDS011;39159;45.634;9.420;2023-03-23T08:01:10;12.13;;;8.30;;
53269;SDS011;39159;45.634;9.420;2023-03-23T08:03:36;14.93;;;7.97;;
53269;SDS011;39159;45.634;9.420;2023-03-23T08:06:02;12.32;;;7.35;;
53269;SDS011;39159;45.634;9.420;2023-03-23T08:08:29;12.88;;;8.35;;
53269;SDS011;39159;45.634;9.420;2023-03-23T08:10:56;10.77;;;7.03;;
53269;SDS011;39159;45.634;9.420;2023-03-23T08:13:22;14.02;;;8.27;;
53269;SDS011;39159;45.634;9.420;2023-03-23T08:15:47;11.40;;;7.72;;
53269;SDS011;39159;45.634;9.420;2023-03-23T08:18:13;11.10;;;7.00;;
53269;SDS011;39159;45.634;9.420;2023-03-23T08:20:39;13.80;;;7.50;;
53269;SDS011;39159;45.634;9.420;2023-03-23T08:23:05;15.52;;;7.32;;
53269;SDS011;39159;45.634;9.420;2023-03-23T08:25:31;10.38;;;7.70;;
53269;SDS011;39159;45.634;9.420;2023-03-23T08:27:57;14.27;;;7.78;;
53269;SDS011;39159;45.634;9.420;2023-03-23T08:30:26;11.73;;;7.40;;
53269;SDS011;39159;45.634;9.420;2023-03-23T08:32:54;27.30;;;8.15;;
53269;SDS011;39159;45.634;9.420;2023-03-23T08:35:21;9.70;;;6.50;;
53269;SDS011;39159;45.634;9.420;2023-03-23T08:37:47;8.23;;;5.70;;
53269;SDS011;39159;45.634;9.420;2023-03-23T08:40:16;15.18;;;6.88;;
53269;SDS011;39159;45.634;9.420;2023-03-23T08:42:44;8.98;;;6.53;;
53269;SDS011;39159;45.634;9.420;2023-03-23T08:45:12;11.68;;;6.43;;
53269;SDS011;39159;45.634;9.420;2023-03-23T08:47:40;9.30;;;5.82;;
53269;SDS011;39159;45.634;9.420;2023-03-23T08:50:07;8.10;;;6.22;;
53269;SDS011;39159;45.634;9.420;2023-03-23T08:52:35;11.90;;;5.82;;
53269;SDS011;39159;45.634;9.420;2023-03-23T08:55:02;9.18;;;5.95;;
53269;SDS011;39159;45.634;9.420;2023-03-23T08:57:28;10.68;;;6.25;;
53269;SDS011;39159;45.634;9.420;2023-03-23T08:59:54;10.48;;;6.32;;
53269;SDS011;39159;45.634;9.420;2023-03-23T09:02:25;8.05;;;5.45;;
53269;SDS011;39159;45.634;9.420;2023-03-23T09:04:51;11.13;;;5.72;;
53269;SDS011;39159;45.634;9.420;2023-03-23T09:07:17;9.70;;;5.28;;
53269;SDS011;39159;45.634;9.420;2023-03-23T09:09:43;7.25;;;5.05;;
53269;SDS011;39159;45.634;9.420;2023-03-23T09:12:09;6.45;;;4.40;;
53269;SDS011;39159;45.634;9.420;2023-03-23T09:14:35;7.35;;;5.35;;
53269;SDS011;39159;45.634;9.420;2023-03-23T09:17:02;8.40;;;5.40;;
53269;SDS011;39159;45.634;9.420;2023-03-23T09:19:28;11.05;;;6.03;;
53269;SDS011;39159;45.634;9.420;2023-03-23T09:21:54;9.23;;;5.43;;
53269;SDS011;39159;45.634;9.420;2023-03-23T09:24:20;7.93;;;5.55;;
53269;SDS011;39159;45.634;9.420;2023-03-23T09:26:46;8.25;;;5.57;;
53269;SDS011;39159;45.634;9.420;2023-03-23T09:29:11;10.20;;;5.60;;
53269;SDS011;39159;45.634;9.420;2023-03-23T09:31:37;8.50;;;5.50;;
53269;SDS011;39159;45.634;9.420;2023-03-23T09:34:05;13.20;;;4.70;;
53269;SDS011;39159;45.634;9.420;2023-03-23T09:36:31;10.05;;;5.53;;
53269;SDS011;39159;45.634;9.420;2023-03-23T09:38:57;45.50;;;7.57;;
53269;SDS011;39159;45.634;9.420;2023-03-23T09:47:32;8.40;;;5.18;;
53269;SDS011;39159;45.634;9.420;2023-03-23T09:50:34;13.43;;;6.50;;
53269;SDS011;39159;45.634;9.420;2023-03-23T09:55:43;11.55;;;6.40;;
53269;SDS011;39159;45.634;9.420;2023-03-23T10:01:06;9.40;;;6.43;;
53269;SDS011;39159;45.634;9.420;2023-03-23T10:03:40;8.10;;;6.35;;
53269;SDS011;39159;45.634;9.420;2023-03-23T10:06:09;13.88;;;6.38;;
53269;SDS011;39159;45.634;9.420;2023-03-23T10:08:38;9.15;;;6.72;;
53269;SDS011;39159;45.634;9.420;2023-03-23T10:11:21;8.35;;;6.25;;
53269;SDS011;39159;45.634;9.420;2023-03-23T10:16:57;10.93;;;7.05;;
53269;SDS011;39159;45.634;9.420;2023-03-23T10:19:51;11.60;;;6.38;;
53269;SDS011;39159;45.634;9.420;2023-03-23T10:22:31;12.82;;;7.15;;
53269;SDS011;39159;45.634;9.420;2023-03-23T10:35:48;9.82;;;7.30;;
53269;SDS011;39159;45.634;9.420;2023-03-23T10:41:13;11.85;;;6.68;;
53269;SDS011;39159;45.634;9.420;2023-03-23T10:43:41;9.88;;;6.47;;
53269;SDS011;39159;45.634;9.420;2023-03-23T10:48:59;23.13;;;8.32;;
53269;SDS011;39159;45.634;9.420;2023-03-23T10:51:30;11.60;;;7.65;;
53269;SDS011;39159;45.634;9.420;2023-03-23T10:54:00;9.93;;;7.22;;
53269;SDS011;39159;45.634;9.420;2023-03-23T10:56:37;11.60;;;8.07;;
53269;SDS011;39159;45.634;9.420;2023-03-23T10:59:14;13.20;;;7.82;;
53269;SDS011;39159;45.634;9.420;2023-03-23T11:01:47;11.77;;;7.68;;
53269;SDS011;39159;45.634;9.420;2023-03-23T11:04:16;10.50;;;7.40;;
53269;SDS011;39159;45.634;9.420;2023-03-23T11:06:46;11.45;;;7.07;;
53269;SDS011;39159;45.634;9.420;2023-03-23T11:09:21;12.30;;;7.82;;
53269;SDS011;39159;45.634;9.420;2023-03-23T11:11:58;12.98;;;7.65;;
53269;SDS011;39159;45.634;9.420;2023-03-23T11:16:57;11.30;;;7.60;;
53269;SDS011;39159;45.634;9.420;2023-03-23T11:22:00;9.52;;;7.47;;
53269;SDS011;39159;45.634;9.420;2023-03-23T11:24:31;12.15;;;7.40;;
53269;SDS011;39159;45.634;9.420;2023-03-23T11:26:59;7.20;;;6.40;;
53269;SDS011;39159;45.634;9.420;2023-03-23T11:29:28;14.35;;;8.25;;
53269;SDS011;39159;45.634;9.420;2023-03-23T11:34:25;9.40;;;6.13;;
53269;SDS011;39159;45.634;9.420;2023-03-23T11:37:00;9.52;;;7.38;;
53269;SDS011;39159;45.634;9.420;2023-03-23T11:39:52;10.70;;;7.07;;
53269;SDS011;39159;45.634;9.420;2023-03-23T11:42:19;12.02;;;7.47;;
53269;SDS011;39159;45.634;9.420;2023-03-23T11:44:53;19.25;;;8.05;;
53269;SDS011;39159;45.634;9.420;2023-03-23T11:53:11;9.88;;;6.40;;
53269;SDS011;39159;45.634;9.420;2023-03-23T11:58:41;13.82;;;7.50;;
53269;SDS011;39159;45.634;9.420;2023-03-23T12:01:17;12.77;;;8.20;;
53269;SDS011;39159;45.634;9.420;2023-03-23T12:09:42;12.73;;;8.52;;
53269;SDS011;39159;45.634;9.420;2023-03-23T12:12:21;11.48;;;7.85;;
53269;SDS011;39159;45.634;9.420;2023-03-23T12:23:24;12.05;;;8.40;;
53269;SDS011;39159;45.634;9.420;2023-03-23T12:34:02;13.15;;;9.00;;
53269;SDS011;39159;45.634;9.420;2023-03-23T12:36:58;14.43;;;9.02;;
53269;SDS011;39159;45.634;9.420;2023-03-23T12:48:22;19.48;;;11.88;;
53269;SDS011;39159;45.634;9.420;2023-03-23T12:53:33;14.90;;;9.48;;
53269;SDS011;39159;45.634;9.420;2023-03-23T12:59:01;15.07;;;9.32;;
53269;SDS011;39159;45.634;9.420;2023-03-23T13:01:40;14.50;;;10.20;;
53269;SDS011;39159;45.634;9.420;2023-03-23T13:04:14;17.60;;;11.13;;
53269;SDS011;39159;45.634;9.420;2023-03-23T13:06:45;15.07;;;10.70;;
53269;SDS011;39159;45.634;9.420;2023-03-23T13:12:02;16.05;;;11.70;;
53269;SDS011;39159;45.634;9.420;2023-03-23T13:22:48;20.10;;;12.35;;
53269;SDS011;39159;45.634;9.420;2023-03-23T13:25:40;15.30;;;10.02;;
53269;SDS011;39159;45.634;9.420;2023-03-23T13:28:17;15.70;;;11.50;;
53269;SDS011;39159;45.634;9.420;2023-03-23T13:30:53;16.45;;;11.32;;
53269;SDS011;39159;45.634;9.420;2023-03-23T13:33:33;15.77;;;11.00;;
53269;SDS011;39159;45.634;9.420;2023-03-23T13:36:26;14.55;;;10.20;;
53269;SDS011;39159;45.634;9.420;2023-03-23T13:38:54;18.23;;;10.43;;
53269;SDS011;39159;45.634;9.420;2023-03-23T13:41:24;15.82;;;10.27;;
53269;SDS011;39159;45.634;9.420;2023-03-23T13:43:51;21.45;;;10.35;;
53269;SDS011;39159;45.634;9.420;2023-03-23T13:51:36;14.57;;;11.25;;
53269;SDS011;39159;45.634;9.420;2023-03-23T13:56:59;14.95;;;11.75;;
53269;SDS011;39159;45.634;9.420;2023-03-23T13:59:46;17.08;;;11.30;;
53269;SDS011;39159;45.634;9.420;2023-03-23T14:02:36;16.65;;;9.80;;
53269;SDS011;39159;45.634;9.420;2023-03-23T14:05:10;19.35;;;12.20;;
53269;SDS011;39159;45.634;9.420;2023-03-23T14:07:53;15.15;;;10.43;;
53269;SDS011;39159;45.634;9.420;2023-03-23T14:10:21;12.80;;;9.70;;
53269;SDS011;39159;45.634;9.420;2023-03-23T14:12:48;15.23;;;9.93;;
53269;SDS011;39159;45.634;9.420;2023-03-23T14:15:17;16.08;;;10.50;;
53269;SDS011;39159;45.634;9.420;2023-03-23T14:17:43;22.38;;;10.93;;
53269;SDS011;39159;45.634;9.420;2023-03-23T14:20:32;17.52;;;10.57;;
53269;SDS011;39159;45.634;9.420;2023-03-23T14:22:59;17.15;;;10.00;;
53269;SDS011;39159;45.634;9.420;2023-03-23T14:25:29;14.18;;;10.80;;
53269;SDS011;39159;45.634;9.420;2023-03-23T14:27:58;14.82;;;11.90;;
53269;SDS011;39159;45.634;9.420;2023-03-23T14:30:25;19.40;;;11.35;;
53269;SDS011;39159;45.634;9.420;2023-03-23T14:33:02;14.05;;;9.75;;
53269;SDS011;39159;45.634;9.420;2023-03-23T14:35:35;14.80;;;10.85;;
53269;SDS011;39159;45.634;9.420;2023-03-23T14:38:03;16.15;;;10.57;;
53269;SDS011;39159;45.634;9.420;2023-03-23T14:40:29;18.75;;;10.63;;
53269;SDS011;39159;45.634;9.420;2023-03-23T14:42:56;19.85;;;9.50;;
53269;SDS011;39159;45.634;9.420;2023-03-23T14:45:23;17.42;;;10.95;;
53269;SDS011;39159;45.634;9.420;2023-03-23T14:47:59;13.13;;;8.57;;
53269;SDS011;39159;45.634;9.420;2023-03-23T14:50:29;12.85;;;8.82;;
53269;SDS011;39159;45.634;9.420;2023-03-23T14:55:59;16.67;;;10.65;;
53269;SDS011;39159;45.634;9.420;2023-03-23T14:58:27;13.25;;;9.85;;
53269;SDS011;39159;45.634;9.420;2023-03-23T15:00:56;18.05;;;11.43;;
53269;SDS011;39159;45.634;9.420;2023-03-23T15:06:14;17.08;;;9.48;;
53269;SDS011;39159;45.634;9.420;2023-03-23T15:08:43;17.27;;;10.07;;
53269;SDS011;39159;45.634;9.420;2023-03-23T15:13:56;16.73;;;10.73;;
53269;SDS011;39159;45.634;9.420;2023-03-23T15:16:30;15.77;;;9.98;;
53269;SDS011;39159;45.634;9.420;2023-03-23T15:23:57;20.80;;;10.85;;
53269;SDS011;39159;45.634;9.420;2023-03-23T15:26:30;14.70;;;10.23;;
53269;SDS011;39159;45.634;9.420;2023-03-23T15:31:33;21.02;;;10.40;;
53269;SDS011;39159;45.634;9.420;2023-03-23T15:34:04;12.73;;;7.97;;
53269;SDS011;39159;45.634;9.420;2023-03-23T15:36:33;20.10;;;9.50;;
53269;SDS011;39159;45.634;9.420;2023-03-23T15:39:00;12.88;;;9.57;;
53269;SDS011;39159;45.634;9.420;2023-03-23T15:41:26;12.77;;;9.55;;
53269;SDS011;39159;45.634;9.420;2023-03-23T15:43:55;12.82;;;8.15;;
53269;SDS011;39159;45.634;9.420;2023-03-23T15:51:32;15.73;;;9.43;;
53269;SDS011;39159;45.634;9.420;2023-03-23T15:53:57;19.35;;;9.55;;
53269;SDS011;39159;45.634;9.420;2023-03-23T15:56:24;10.93;;;8.65;;
53269;SDS011;39159;45.634;9.420;2023-03-23T15:58:50;15.05;;;8.98;;
53269;SDS011;39159;45.634;9.420;2023-03-23T16:01:20;15.65;;;10.20;;
53269;SDS011;39159;45.634;9.420;2023-03-23T16:03:54;12.40;;;8.88;;
53269;SDS011;39159;45.634;9.420;2023-03-23T16:08:48;14.07;;;9.40;;
53269;SDS011;39159;45.634;9.420;2023-03-23T16:11:15;17.25;;;9.43;;
53269;SDS011;39159;45.634;9.420;2023-03-23T16:13:42;13.98;;;8.50;;
53269;SDS011;39159;45.634;9.420;2023-03-23T16:16:50;13.18;;;8.05;;
53269;SDS011;39159;45.634;9.420;2023-03-23T16:18:58;10.95;;;7.25;;
53269;SDS011;39159;45.634;9.420;2023-03-23T16:21:24;10.93;;;7.88;;
53269;SDS011;39159;45.634;9.420;2023-03-23T16:23:50;10.80;;;7.78;;
53269;SDS011;39159;45.634;9.420;2023-03-23T16:26:16;10.82;;;7.60;;
53269;SDS011;39159;45.634;9.420;2023-03-23T16:28:42;10.65;;;8.25;;
53269;SDS011;39159;45.634;9.420;2023-03-23T16:31:08;14.63;;;7.95;;
53269;SDS011;39159;45.634;9.420;2023-03-23T16:33:34;12.52;;;7.05;;
53269;SDS011;39159;45.634;9.420;2023-03-23T16:35:59;14.13;;;9.18;;
53269;SDS011;39159;45.634;9.420;2023-03-23T16:38:25;18.65;;;9.30;;
53269;SDS011;39159;45.634;9.420;2023-03-23T16:40:51;20.25;;;8.02;;
53269;SDS011;39159;45.634;9.420;2023-03-23T16:43:16;17.00;;;8.57;;
53269;SDS011;39159;45.634;9.420;2023-03-23T16:45:43;17.08;;;8.75;;
53269;SDS011;39159;45.634;9.420;2023-03-23T16:48:10;11.63;;;7.28;;
53269;SDS011;39159;45.634;9.420;2023-03-23T16:50:38;13.60;;;6.85;;
53269;SDS011;39159;45.634;9.420;2023-03-23T16:53:04;35.90;;;10.68;;
53269;SDS011;39159;45.634;9.420;2023-03-23T16:55:32;19.77;;;8.13;;
53269;SDS011;39159;45.634;9.420;2023-03-23T16:57:58;35.05;;;9.80;;
53269;SDS011;39159;45.634;9.420;2023-03-23T17:00:23;29.10;;;8.27;;
53269;SDS011;39159;45.634;9.420;2023-03-23T17:02:51;26.73;;;7.25;;
53269;SDS011;39159;45.634;9.420;2023-03-23T17:05:18;27.55;;;9.27;;
53269;SDS011;39159;45.634;9.420;2023-03-23T17:07:46;32.88;;;9.32;;
53269;SDS011;39159;45.634;9.420;2023-03-23T17:10:12;23.23;;;7.90;;
53269;SDS011;39159;45.634;9.420;2023-03-23T17:12:39;13.57;;;7.28;;
53269;SDS011;39159;45.634;9.420;2023-03-23T17:15:05;15.35;;;8.30;;
53269;SDS011;39159;45.634;9.420;2023-03-23T17:17:31;16.17;;;7.80;;
53269;SDS011;39159;45.634;9.420;2023-03-23T17:19:57;13.90;;;7.22;;